CYGE

Golden Airport

Golden, British Columbia, Canada
METAR CYGE 201510Z 00000KT 10SM -SN FEW006 BKN035 OVC055 M25/M28 A3020 RMK ST2SC5SC1 SLP315
Observed Flight Rules
Feb-20 @ 15:10 UTC (2 hours ago) Visual Flight Rules
Wind Visibility Clouds Conditions
Calm 10 miles
  • Few at 600' AGL
  • Broken at 3,500' AGL
  • Overcast at 5,500' AGL
  • Light Snow
Temperatures Readings
Current -25°C / -13°F
Dewpoint -28°C / -18°F
Humidity 76%
Altimeter 30.2" Hg
Pressure 1031.5 hPa
Elevation 785
METAR CYGE 201510Z 00000KT 10SM -SN FEW006 BKN035 OVC055 M25/M28 A3020 RMK ST2SC5SC1 SLP315
Observed Flight Rules
Feb-20 @ 15:10 UTC
(2 hours ago)
VFR
Wind Visibility
Calm 10 miles
Clouds
  • Few at 600' AGL
  • Broken at 3,500' AGL
  • Overcast at 5,500' AGL
Conditions
  • Light Snow
Temperature Dewpoint
-25°C / -13°F -28°C / -18°F
Humidity Altimeter Pressure
76% 30.2" Hg 1031.5 hPa